Time;durP1;ratioP1;P1;durP2;ratioP2;P2;SDS_P1;SDS_P2;PMS_P1;PMS_P2;Temp;Humidity;BMP_temperature;BMP_pressure;BME280_temperature;BME280_humidity;BME280_pressure;Samples;Min_cycle;Max_cycle;Signal;HPM_P1;HPM_P2
2023/01/02 00:00:33;;;;;;;41.63;17.07;;;6.70;99.90;;;4.67;100.00;101170.88;10548447;28;20593;-81
2023/01/02 00:05:36;;;;;;;34.37;16.73;;;6.90;99.90;;;4.85;100.00;101161.69;10561543;28;20128;-81
2023/01/02 00:10:39;;;;;;;45.23;17.60;;;7.10;99.90;;;5.03;100.00;101156.91;10550407;28;20052;-81
2023/01/02 00:15:42;;;;;;;49.30;20.37;;;7.20;99.90;;;5.19;100.00;101152.25;10536813;28;20052;-81
2023/01/02 00:20:45;;;;;;;45.37;19.37;;;7.40;99.90;;;5.37;100.00;101156.19;10540145;28;20059;-80
2023/01/02 00:25:48;;;;;;;50.83;18.83;;;7.60;99.90;;;5.53;100.00;101134.84;10550733;28;20064;-81
2023/01/02 00:30:51;;;;;;;51.70;19.17;;;7.80;99.90;;;5.70;100.00;101138.88;10548910;28;20090;-81
2023/01/02 00:35:54;;;;;;;56.03;18.77;;;7.90;99.90;;;5.80;100.00;101152.22;10527494;28;20589;-81
2023/01/02 00:40:57;;;;;;;44.57;16.17;;;8.00;99.90;;;5.90;100.00;101154.06;10588279;28;20078;-81
2023/01/02 00:46:00;;;;;;;48.33;18.20;;;8.10;99.90;;;5.98;100.00;101160.59;10567841;28;20064;-81
2023/01/02 00:51:11;;;;;;;54.70;18.73;;;8.20;99.90;;;6.06;100.00;101158.22;10550464;28;20109;-81
2023/01/02 00:56:15;;;;;;;55.60;18.00;;;8.30;99.90;;;6.12;100.00;101155.13;10551026;28;20693;-81
2023/01/02 01:01:18;;;;;;;49.33;18.57;;;8.30;99.90;;;6.19;100.00;101163.41;10567735;28;20119;-81
2023/01/02 01:06:21;;;;;;;42.30;14.93;;;8.40;99.90;;;6.24;100.00;101161.25;10568738;28;20537;-81
2023/01/02 01:11:24;;;;;;;62.07;18.93;;;8.40;99.90;;;6.29;100.00;101138.00;10539935;27;20524;-81
2023/01/02 01:16:27;;;;;;;49.57;18.23;;;8.50;99.90;;;6.34;100.00;101135.84;10533234;28;20449;-81
2023/01/02 01:21:30;;;;;;;42.57;16.97;;;8.60;99.90;;;6.38;100.00;101143.41;10549869;28;20060;-81
2023/01/02 01:26:33;;;;;;;58.17;20.00;;;8.60;99.90;;;6.43;100.00;101140.44;10567412;28;20515;-81
2023/01/02 01:31:36;;;;;;;45.63;17.63;;;8.60;99.90;;;6.47;100.00;101139.22;10560270;28;20142;-81
2023/01/02 01:36:39;;;;;;;51.00;17.43;;;8.70;99.90;;;6.50;100.00;101127.59;10564087;28;20060;-81
2023/01/02 01:41:42;;;;;;;43.07;16.27;;;8.70;99.90;;;6.52;100.00;101126.50;10567531;28;20055;-81
2023/01/02 01:46:46;;;;;;;53.37;17.70;;;8.80;99.90;;;6.57;100.00;101107.66;10531536;28;20060;-81
2023/01/02 01:52:06;;;;;;;44.93;17.23;;;8.80;99.90;;;6.58;100.00;101101.41;10552539;28;20067;-82
2023/01/02 01:57:30;;;;;;;39.33;15.20;;;8.80;99.90;;;6.58;100.00;101083.78;10532748;28;20079;-81
2023/01/02 02:02:35;;;;;;;63.57;17.00;;;8.90;99.90;;;6.62;100.00;101089.66;10546447;27;20105;-81
2023/01/02 02:07:47;;;;;;;48.27;15.80;;;8.90;99.90;;;6.63;100.00;101078.13;10552576;28;20095;-81
2023/01/02 02:12:50;;;;;;;44.13;15.30;;;8.90;99.90;;;6.64;100.00;101059.50;10550384;28;20147;-81
2023/01/02 02:18:16;;;;;;;58.50;15.63;;;8.90;99.90;;;6.64;100.00;101063.97;10569944;27;20063;-81
2023/01/02 02:23:51;;;;;;;59.53;16.47;;;8.90;99.90;;;6.63;100.00;101067.56;10554588;28;20114;-81
2023/01/02 02:29:41;;;;;;;72.30;17.47;;;8.90;99.90;;;6.63;100.00;101076.31;10541346;28;20090;-81
2023/01/02 02:35:27;;;;;;;71.07;15.57;;;8.90;99.90;;;6.62;100.00;101071.19;10538380;28;20497;-81
2023/01/02 02:41:04;;;;;;;62.33;16.47;;;8.90;99.90;;;6.58;100.00;101059.16;10572489;28;20064;-82
2023/01/02 02:46:42;;;;;;;65.47;17.03;;;8.80;99.90;;;6.57;100.00;101063.59;10551280;28;20052;-81
2023/01/02 02:52:00;;;;;;;96.53;15.87;;;8.80;99.90;;;6.56;100.00;101071.66;10574085;28;20060;-81
2023/01/02 02:57:06;;;;;;;78.17;16.77;;;8.80;99.90;;;6.54;100.00;101063.03;10532825;28;20387;-81
2023/01/02 03:02:16;;;;;;;68.43;16.97;;;8.80;99.90;;;6.56;100.00;101083.06;10541918;28;20426;-81
2023/01/02 03:08:02;;;;;;;62.97;15.80;;;8.80;99.90;;;6.57;100.00;101068.88;10570258;28;20067;-81
2023/01/02 03:13:37;;;;;;;116.40;19.80;;;8.80;99.90;;;6.59;100.00;101061.66;10556273;27;20052;-81
2023/01/02 03:19:13;;;;;;;91.90;18.27;;;8.80;99.90;;;6.60;100.00;101062.53;10533065;28;20433;-81
2023/01/02 03:24:19;;;;;;;;;;;8.80;99.90;;;6.61;100.00;101051.84;10570622;28;20060;-81
2023/01/02 03:29:52;;;;;;;103.90;20.90;;;8.80;99.90;;;6.60;100.00;101049.34;10520726;28;19928;-81
2023/01/02 03:34:56;;;;;;;84.70;19.40;;;8.80;99.90;;;6.61;100.00;101053.66;10554967;28;20056;-81
2023/01/02 03:40:08;;;;;;;72.30;16.23;;;8.80;99.90;;;6.62;100.00;101055.31;10547819;28;20151;-81
2023/01/02 03:45:23;;;;;;;95.43;18.07;;;8.80;99.90;;;6.62;100.00;101048.25;10554524;28;20071;-81
2023/01/02 03:50:43;;;;;;;91.53;17.93;;;8.80;99.90;;;6.61;100.00;101043.94;10524751;28;20541;-81
2023/01/02 03:56:25;;;;;;;83.93;17.53;;;8.80;99.90;;;6.62;100.00;101044.75;10568134;28;20056;-81
2023/01/02 04:01:48;;;;;;;65.18;16.90;;;8.80;99.90;;;6.62;100.00;101050.03;10535412;28;20095;-81
2023/01/02 04:07:02;;;;;;;85.30;19.17;;;8.80;99.90;;;6.61;100.00;101045.72;10553660;28;20132;-81
2023/01/02 04:12:13;;;;;;;68.87;15.37;;;8.80;99.90;;;6.61;100.00;101040.44;10571474;28;20094;-81
2023/01/02 04:17:19;;;;;;;88.15;16.38;;;8.80;99.90;;;6.61;100.00;101043.94;10535683;28;20048;-81
2023/01/02 04:22:35;;;;;;;76.77;15.73;;;8.80;99.90;;;6.60;100.00;101047.53;10539188;28;20056;-81
2023/01/02 04:27:45;;;;;;;93.83;18.17;;;8.80;99.90;;;6.60;100.00;101042.25;10542788;28;20478;-80
2023/01/02 04:32:51;;;;;;;72.43;16.33;;;8.80;99.90;;;6.60;100.00;101050.19;10568349;28;20174;-81
2023/01/02 04:37:54;;;;;;;76.37;14.57;;;8.80;99.90;;;6.61;100.00;101048.38;10550517;28;20458;-81
2023/01/02 04:42:57;;;;;;;62.20;15.17;;;8.90;99.90;;;6.60;100.00;101051.97;10557503;28;20570;-81
2023/01/02 04:48:00;;;;;;;50.23;15.37;;;8.80;99.90;;;6.58;100.00;101059.16;10570268;28;20059;-81
2023/01/02 04:53:03;;;;;;;69.03;14.27;;;8.80;99.90;;;6.56;100.00;101054.00;10566994;28;20060;-81
2023/01/02 04:58:06;;;;;;;66.80;13.97;;;8.80;99.90;;;6.56;100.00;101064.56;10553659;28;20064;-81
2023/01/02 05:03:09;;;;;;;57.37;13.93;;;8.80;99.90;;;6.54;100.00;101073.59;10559603;28;20133;-81
2023/01/02 05:08:12;;;;;;;74.07;14.63;;;8.80;99.90;;;6.52;100.00;101063.13;10545604;28;20109;-81
2023/01/02 05:13:18;;;;;;;64.93;13.77;;;8.80;99.90;;;6.52;100.00;101059.66;10563352;28;20102;-82
2023/01/02 05:18:21;;;;;;;65.37;14.03;;;8.80;99.90;;;6.50;100.00;101065.06;10560886;28;20052;-82
2023/01/02 05:28:50;;;;;;;63.60;13.90;;;8.70;99.90;;;6.47;100.00;101062.63;10543465;28;20061;-81
2023/01/02 05:33:55;;;;;;;44.87;14.43;;;8.70;99.90;;;6.43;100.00;101066.50;10532135;28;20063;-82
2023/01/02 05:38:59;;;;;;;57.70;13.70;;;8.70;99.90;;;6.41;100.00;101055.19;10564471;28;20086;-84
2023/01/02 05:44:02;;;;;;;54.77;13.67;;;8.70;99.90;;;6.41;100.00;101049.91;10573450;28;20105;-82
2023/01/02 05:49:10;;;;;;;53.53;13.17;;;8.70;99.90;;;6.40;100.00;101057.00;10541550;28;20056;-82
2023/01/02 05:54:13;;;;;;;59.83;12.07;;;8.60;99.90;;;6.41;100.00;101052.56;10544440;27;20063;-81
2023/01/02 05:59:16;;;;;;;59.40;14.17;;;8.70;99.90;;;6.40;100.00;101050.88;10571597;28;20543;-82
2023/01/02 06:04:19;;;;;;;78.43;14.97;;;8.70;99.90;;;6.41;100.00;101047.28;10556245;28;20107;-82
2023/01/02 06:09:22;;;;;;;35.60;11.13;;;8.70;99.90;;;6.41;100.00;101058.69;10520722;28;20052;-81
2023/01/02 06:14:26;;;;;;;78.27;13.83;;;8.70;99.90;;;6.40;100.00;101037.69;10574286;28;20063;-82
2023/01/02 06:19:29;;;;;;;80.27;17.63;;;8.70;99.90;;;6.40;100.00;101046.44;10565929;28;20063;-82
2023/01/02 06:24:32;;;;;;;68.53;13.43;;;8.70;99.90;;;6.39;100.00;101038.66;10525485;28;20056;-81
2023/01/02 06:29:35;;;;;;;55.70;12.00;;;8.70;99.90;;;6.38;100.00;101052.81;10553520;28;20064;-82
2023/01/02 06:34:38;;;;;;;79.40;13.60;;;8.60;99.90;;;6.37;100.00;101041.41;10537928;28;20055;-81
2023/01/02 06:39:41;;;;;;;53.13;11.90;;;8.70;99.90;;;6.34;100.00;101048.72;10543415;28;20060;-82
2023/01/02 06:44:44;;;;;;;70.50;13.40;;;8.60;99.90;;;6.34;100.00;101040.81;10558037;28;20135;-82
2023/01/02 06:49:46;;;;;;;75.00;14.43;;;8.60;99.90;;;6.32;100.00;101048.00;10547852;28;20537;-81
2023/01/02 06:54:49;;;;;;;54.33;11.30;;;8.60;99.90;;;6.32;100.00;101048.84;10545767;28;20083;-82
2023/01/02 06:59:52;;;;;;;46.77;13.30;;;8.60;99.90;;;6.31;100.00;101051.63;10571163;28;20056;-82
2023/01/02 07:04:55;;;;;;;52.13;13.53;;;8.60;99.90;;;6.32;100.00;101055.94;10537877;28;20146;-81
2023/01/02 07:09:58;;;;;;;125.67;15.20;;;8.60;99.90;;;6.34;100.00;101067.19;10523910;28;20056;-81
2023/01/02 07:15:04;;;;;;;101.47;14.70;;;8.60;99.90;;;6.31;100.00;101078.84;10504145;28;20063;-81
2023/01/02 07:20:07;;;;;;;69.17;15.77;;;8.60;99.90;;;6.30;100.00;101090.38;10578803;28;20055;-81
2023/01/02 07:25:10;;;;;;;89.87;15.57;;;8.60;99.90;;;6.32;100.00;101079.69;10565383;28;20162;-81
2023/01/02 07:30:14;;;;;;;57.00;15.90;;;8.60;99.90;;;6.35;100.00;101076.78;10570067;28;20060;-81
2023/01/02 07:35:17;;;;;;;65.67;13.10;;;8.50;99.90;;;6.36;100.00;101081.97;10554536;28;20060;-81
2023/01/02 07:40:20;;;;;;;65.83;15.13;;;8.60;99.90;;;6.37;100.00;101082.81;10572739;28;20062;-81
2023/01/02 07:45:22;;;;;;;78.67;14.20;;;8.60;99.90;;;6.36;100.00;101087.25;10555552;28;20059;-81
2023/01/02 07:50:25;;;;;;;77.97;13.40;;;8.60;99.90;;;6.39;100.00;101075.63;10554580;28;20052;-81
2023/01/02 07:55:29;;;;;;;50.47;13.00;;;8.60;99.90;;;6.41;100.00;101079.78;10570991;28;20052;-81
2023/01/02 08:00:32;;;;;;;59.87;13.40;;;8.60;99.90;;;6.45;100.00;101090.97;10535591;27;20066;-81
2023/01/02 08:05:35;;;;;;;54.10;14.20;;;8.70;99.90;;;6.47;100.00;101082.94;10565321;28;20090;-81
2023/01/02 08:10:38;;;;;;;38.00;13.37;;;8.70;99.90;;;6.49;100.00;101084.50;10530077;28;20057;-81
2023/01/02 08:15:41;;;;;;;46.87;11.60;;;8.70;99.90;;;6.53;100.00;101085.91;10538637;28;20056;-81
2023/01/02 08:20:44;;;;;;;51.10;13.90;;;8.80;99.90;;;6.55;100.00;101076.09;10552550;28;20064;-81
2023/01/02 08:25:47;;;;;;;64.50;16.60;;;8.80;99.90;;;6.60;100.00;101078.38;10568856;28;20059;-81
2023/01/02 08:30:57;;;;;;;58.27;16.10;;;8.80;99.90;;;6.65;100.00;101074.41;10572122;28;20062;-81
2023/01/02 08:36:00;;;;;;;56.87;13.97;;;8.90;99.90;;;6.68;100.00;101081.25;10585919;28;20062;-81
2023/01/02 08:41:04;;;;;;;68.23;13.10;;;8.90;99.90;;;6.68;100.00;101089.19;10553315;28;20052;-81
2023/01/02 08:46:09;;;;;;;75.37;15.33;;;8.90;99.90;;;6.69;100.00;101107.53;10542410;28;20453;-81
2023/01/02 08:51:12;;;;;;;64.37;13.23;;;8.90;99.90;;;6.71;100.00;101089.75;10569946;28;20067;-81
2023/01/02 08:56:26;;;;;;;57.67;15.00;;;8.90;99.90;;;6.76;100.00;101078.00;10548318;28;20052;-81
2023/01/02 09:01:31;;;;;;;61.00;15.50;;;9.00;99.90;;;6.76;100.00;101080.63;10545462;28;20066;-82
2023/01/02 09:06:36;;;;;;;55.50;12.37;;;9.00;99.90;;;6.81;100.00;101096.97;10547783;28;20152;-81
2023/01/02 09:11:49;;;;;;;68.30;14.87;;;9.00;99.90;;;6.84;100.00;101086.16;10492228;28;20506;-81
2023/01/02 09:16:52;;;;;;;52.50;13.03;;;9.10;99.90;;;6.85;100.00;101082.56;10542904;28;20438;-81
2023/01/02 09:21:56;;;;;;;54.40;14.80;;;9.10;99.90;;;6.88;100.00;101090.22;10543492;28;20144;-81
2023/01/02 09:26:59;;;;;;;49.53;15.00;;;9.10;99.90;;;6.90;100.00;101081.25;10507280;28;20498;-82
2023/01/02 09:32:02;;;;;;;51.50;12.73;;;9.10;99.90;;;6.90;100.00;101075.13;10523902;28;20063;-82
2023/01/02 09:37:05;;;;;;;49.90;13.63;;;9.10;99.90;;;6.89;100.00;101063.69;10522951;28;20537;-82
2023/01/02 09:42:14;;;;;;;50.40;13.97;;;9.10;99.90;;;6.93;100.00;101062.47;10524529;28;20064;-82
2023/01/02 09:47:23;;;;;;;44.57;13.90;;;9.10;99.90;;;6.96;100.00;101050.84;10545762;28;20503;-81
2023/01/02 09:52:43;;;;;;;44.97;14.90;;;9.20;99.90;;;7.02;100.00;101041.53;10550641;28;20066;-82
2023/01/02 09:58:13;;;;;;;47.87;14.43;;;9.20;99.90;;;7.01;100.00;101034.59;10567157;28;20131;-81
2023/01/02 10:03:34;;;;;;;39.93;14.53;;;9.20;99.90;;;7.05;100.00;101026.28;10570440;28;20150;-81
2023/01/02 10:09:03;;;;;;;32.63;13.30;;;9.30;99.90;;;7.12;100.00;101027.47;10578811;28;20059;-81
2023/01/02 10:14:30;;;;;;;39.13;14.10;;;9.30;99.90;;;7.17;100.00;101030.56;10567641;28;20060;-82
2023/01/02 10:20:05;;;;;;;53.07;16.43;;;9.40;99.90;;;7.18;100.00;101026.97;10551815;28;20067;-82
2023/01/02 10:25:32;;;;;;;51.73;14.33;;;9.40;99.90;;;7.16;100.00;101020.13;10537443;28;20064;-82
2023/01/02 10:30:45;;;;;;;40.03;14.90;;;9.40;99.90;;;7.18;100.00;101010.28;10554962;27;20531;-82
2023/01/02 10:36:00;;;;;;;54.53;16.53;;;9.40;99.90;;;7.19;100.00;101006.66;10562242;28;20102;-82
2023/01/02 10:41:04;;;;;;;42.70;15.77;;;9.40;99.90;;;7.13;100.00;101000.06;10557951;28;20135;-82
2023/01/02 10:46:07;;;;;;;37.07;14.57;;;9.30;99.90;;;7.10;100.00;100992.41;10572354;28;20063;-81
2023/01/02 10:51:15;;;;;;;42.07;16.97;;;9.30;99.90;;;7.09;100.00;100981.97;10556788;28;20063;-82
2023/01/02 10:56:19;;;;;;;48.40;18.17;;;9.30;99.90;;;7.11;100.00;100977.38;10556713;28;20472;-82
2023/01/02 11:01:22;;;;;;;50.93;17.60;;;9.30;99.90;;;7.13;100.00;100971.00;10573362;28;20567;-82
2023/01/02 11:06:30;;;;;;;42.10;17.17;;;9.30;99.90;;;7.17;100.00;100968.94;10552397;28;20093;-83
2023/01/02 11:11:57;;;;;;;44.07;17.13;;;9.40;99.90;;;7.17;100.00;100961.84;10576439;27;20143;-81
2023/01/02 11:17:15;;;;;;;42.60;16.37;;;9.40;99.90;;;7.24;100.00;100951.59;10528630;28;20060;-80
2023/01/02 11:22:32;;;;;;;59.97;20.73;;;9.40;99.90;;;7.23;100.00;100942.84;10546198;28;20060;-80
2023/01/02 11:27:41;;;;;;;44.70;16.70;;;9.40;99.90;;;7.24;100.00;100939.22;10551426;28;20063;-80
2023/01/02 11:32:43;;;;;;;44.60;15.03;;;9.50;99.90;;;7.27;100.00;100940.78;10562284;28;20090;-82
2023/01/02 11:37:55;;;;;;;38.00;13.87;;;9.50;99.90;;;7.31;100.00;100926.31;10550806;28;20064;-81
2023/01/02 11:48:50;;;;;;;49.67;16.17;;;9.50;99.90;;;7.39;100.00;100909.84;10385408;28;20113;-82
2023/01/02 11:53:53;;;;;;;33.73;14.60;;;9.60;99.90;;;7.44;100.00;100907.66;10518434;28;20079;-82
2023/01/02 11:59:11;;;;;;;47.23;16.30;;;9.60;99.90;;;7.50;100.00;100899.19;10528962;28;20080;-82
2023/01/02 12:04:14;;;;;;;51.93;21.67;;;9.70;99.90;;;7.56;100.00;100903.94;10544027;28;20087;-82
2023/01/02 12:10:19;;;;;;;44.43;15.90;;;9.80;99.90;;;7.61;100.00;100909.66;10545030;28;20056;-83
2023/01/02 12:16:16;;;;;;;53.33;20.00;;;9.80;99.90;;;7.62;100.00;100907.88;10558373;28;20059;-82
2023/01/02 12:21:24;;;;;;;42.67;17.03;;;9.80;99.90;;;7.63;100.00;100898.97;10466160;28;20092;-82
2023/01/02 12:26:54;;;;;;;41.40;17.80;;;9.80;99.90;;;7.64;100.00;100892.72;10560333;27;20052;-83
2023/01/02 12:32:34;;;;;;;43.60;18.63;;;9.90;99.90;;;7.58;100.00;100902.00;10547112;27;20069;-82
2023/01/02 12:37:45;;;;;;;48.00;22.17;;;9.80;99.90;;;7.48;100.00;100891.34;10543838;28;20062;-82
2023/01/02 12:43:20;;;;;;;51.00;20.27;;;9.80;99.90;;;7.49;100.00;100889.56;10567626;27;20055;-82
2023/01/02 12:48:58;;;;;;;50.40;20.83;;;9.70;99.90;;;7.50;100.00;100896.53;10557357;27;20471;-82
2023/01/02 12:54:37;;;;;;;38.70;17.77;;;9.80;99.90;;;7.48;100.00;100879.94;10560629;27;20059;-81
2023/01/02 12:59:56;;;;;;;48.47;20.47;;;9.70;99.90;;;7.51;100.00;100877.06;10580392;28;20052;-82
2023/01/02 13:05:20;;;;;;;48.43;19.07;;;9.70;99.90;;;7.55;100.00;100865.22;10566330;28;20114;-82
2023/01/02 13:10:27;;;;;;;42.17;18.87;;;9.80;99.90;;;7.62;100.00;100873.50;10545836;27;20056;-82
2023/01/02 13:15:36;;;;;;;43.20;18.03;;;9.80;99.90;;;7.69;100.00;100872.00;10533650;28;20056;-82
2023/01/02 13:20:42;;;;;;;42.83;19.13;;;9.90;99.90;;;7.73;100.00;100868.91;10544044;27;20062;-82
2023/01/02 13:25:51;;;;;;;40.40;20.03;;;10.00;99.90;;;7.76;100.00;100867.84;10570688;28;20101;-82
2023/01/02 13:30:59;;;;;;;35.07;17.07;;;10.00;99.90;;;7.78;100.00;100871.19;10547879;27;20094;-82
2023/01/02 13:36:27;;;;;;;38.60;17.67;;;10.00;99.90;;;7.77;100.00;100859.75;10566308;27;20067;-82
2023/01/02 13:42:57;;;;;;;45.93;19.70;;;10.00;99.90;;;7.79;100.00;100871.03;10563054;27;20066;-82
2023/01/02 13:47:31;;;;;;;33.47;17.77;;;10.00;99.90;;;7.83;100.00;100870.78;10573595;27;20501;-82
2023/01/02 13:52:39;;;;;;;41.60;19.17;;;10.10;99.90;;;7.80;100.00;100863.97;10541989;27;20091;-82
2023/01/02 13:57:43;;;;;;;47.83;20.03;;;10.10;99.90;;;7.84;100.00;100869.81;10539911;27;20170;-82
2023/01/02 14:03:24;;;;;;;32.87;14.83;;;10.10;99.90;;;7.83;100.00;100866.31;10546685;28;20059;-82
2023/01/02 14:08:31;;;;;;;40.47;19.13;;;10.10;99.90;;;7.84;100.00;100880.38;10565200;27;20171;-82
2023/01/02 14:13:53;;;;;;;49.37;22.53;;;10.10;99.90;;;7.87;100.00;100870.38;10564742;27;20115;-82
2023/01/02 14:19:17;;;;;;;60.88;27.05;;;10.10;99.90;;;7.87;100.00;100874.84;10521079;27;20435;-82
2023/01/02 14:24:33;;;;;;;47.57;20.13;;;10.20;99.90;;;7.83;100.00;100886.66;10535201;28;20110;-82
2023/01/02 14:29:49;;;;;;;42.43;19.97;;;10.10;99.90;;;7.77;100.00;100886.22;10557314;27;20049;-82
2023/01/02 14:34:57;;;;;;;40.10;19.10;;;10.10;99.90;;;7.66;100.00;100882.81;10532024;27;20062;-82
2023/01/02 14:40:21;;;;;;;46.00;22.00;;;10.00;99.90;;;7.55;100.00;100873.16;10560552;27;20060;-82
2023/01/02 14:45:27;;;;;;;46.13;20.97;;;9.80;99.90;;;7.48;100.00;100874.66;10563001;27;20060;-82
2023/01/02 14:50:33;;;;;;;43.67;19.57;;;9.80;99.90;;;7.43;100.00;100866.28;10561087;27;20152;-82
2023/01/02 14:55:38;;;;;;;46.33;20.13;;;9.70;99.90;;;7.39;100.00;100867.53;10568720;28;20090;-81
2023/01/02 15:00:46;;;;;;;42.13;19.20;;;9.60;99.90;;;7.36;100.00;100865.13;10550115;27;20063;-82
2023/01/02 15:06:27;;;;;;;32.50;16.13;;;9.60;99.90;;;7.33;100.00;100860.94;10575771;27;20060;-82
2023/01/02 15:16:58;;;;;;;39.22;17.85;;;9.60;99.90;;;7.27;100.00;100873.84;10547748;27;20472;-82
2023/01/02 15:22:16;;;;;;;48.50;21.27;;;9.60;99.90;;;7.20;100.00;100866.44;10575405;28;20071;-83
2023/01/02 15:27:29;;;;;;;43.47;18.60;;;9.50;99.90;;;7.15;100.00;100873.94;10545022;28;20064;-83
2023/01/02 15:32:33;;;;;;;41.00;19.80;;;9.40;99.90;;;7.10;100.00;100884.03;10559610;28;20052;-82
2023/01/02 15:37:42;;;;;;;42.40;18.17;;;9.40;99.90;;;7.04;100.00;100870.50;10537218;28;20060;-82
2023/01/02 15:48:09;;;;;;;36.47;17.30;;;9.20;99.90;;;6.93;100.00;100874.88;10523532;27;20425;-81
2023/01/02 15:53:28;;;;;;;41.50;18.20;;;9.20;99.90;;;6.86;100.00;100873.72;10541118;28;20052;-80
2023/01/02 15:58:37;;;;;;;41.53;19.10;;;9.10;99.90;;;6.86;100.00;100878.16;10551181;28;20060;-81
2023/01/02 16:03:45;;;;;;;42.70;19.10;;;9.10;99.90;;;6.82;100.00;100882.00;10553032;27;20067;-81
2023/01/02 16:09:17;;;;;;;48.17;20.37;;;9.00;99.90;;;6.77;100.00;100898.25;10547515;28;20052;-82
2023/01/02 16:14:44;;;;;;;48.77;20.03;;;9.00;99.90;;;6.76;100.00;100898.38;10542906;28;20068;-82
2023/01/02 16:20:06;;;;;;;52.50;21.40;;;9.00;99.90;;;6.71;100.00;100891.66;10541233;27;20056;-82
2023/01/02 16:25:20;;;;;;;53.07;20.30;;;9.00;99.90;;;6.68;100.00;100902.50;10543133;28;20531;-81
2023/01/02 16:30:39;;;;;;;46.87;20.07;;;9.00;99.90;;;6.65;100.00;100896.59;10577453;27;20119;-82
2023/01/02 16:36:12;;;;;;;51.37;20.10;;;8.90;99.90;;;6.66;100.00;100895.66;10545030;27;20151;-82
2023/01/02 16:42:32;;;;;;;50.90;20.13;;;8.90;99.90;;;6.64;100.00;100901.03;10577589;27;20549;-81
2023/01/02 16:47:11;;;;;;;43.97;18.83;;;8.90;99.90;;;6.64;100.00;100900.22;10563770;27;20060;-82
2023/01/02 16:52:14;;;;;;;46.10;17.10;;;8.90;99.90;;;6.62;100.00;100902.16;10564359;27;20052;-82
2023/01/02 16:57:20;;;;;;;55.80;20.37;;;8.90;99.90;;;6.56;100.00;100907.94;10521266;27;20169;-81
2023/01/02 17:02:23;;;;;;;58.97;20.37;;;8.80;99.90;;;6.49;100.00;100906.75;10540881;27;20056;-82
2023/01/02 17:07:26;;;;;;;60.60;22.00;;;8.70;99.90;;;6.41;100.00;100904.72;10560637;27;20087;-82
2023/01/02 17:12:29;;;;;;;57.20;18.10;;;8.70;99.90;;;6.38;100.00;100904.97;10557731;28;20083;-81
2023/01/02 17:17:32;;;;;;;63.40;17.80;;;8.60;99.90;;;6.37;100.00;100903.31;10538374;27;20149;-81
2023/01/02 17:22:36;;;;;;;50.00;16.50;;;8.60;99.90;;;6.35;100.00;100910.50;10566414;27;20056;-81
2023/01/02 17:27:40;;;;;;;72.67;17.70;;;8.60;99.90;;;6.35;100.00;100908.69;10562482;27;20062;-81
2023/01/02 17:32:43;;;;;;;55.17;17.50;;;8.60;99.90;;;6.35;100.00;100913.13;10570381;27;20102;-80
2023/01/02 17:37:48;;;;;;;64.53;15.40;;;8.60;99.90;;;6.35;100.00;100915.75;10547349;27;20060;-81
2023/01/02 17:42:51;;;;;;;49.87;17.63;;;8.60;99.90;;;6.33;100.00;100917.69;10568388;28;20428;-82
2023/01/02 17:47:54;;;;;;;46.60;20.70;;;8.50;99.90;;;6.34;100.00;100924.66;10549979;28;20078;-81
2023/01/02 17:53:12;;;;;;;53.30;17.17;;;8.60;99.90;;;6.35;100.00;100911.31;10550942;28;20113;-81
2023/01/02 17:58:15;;;;;;;56.57;16.80;;;8.60;99.90;;;6.35;100.00;100913.13;10554209;28;20056;-81
2023/01/02 18:03:18;;;;;;;63.60;16.17;;;8.60;99.90;;;6.35;100.00;100913.13;10566033;28;20508;-81
2023/01/02 18:08:21;;;;;;;58.47;17.73;;;8.60;99.90;;;6.32;100.00;100911.59;10560413;28;20145;-81
2023/01/02 18:13:27;;;;;;;75.50;17.50;;;8.60;99.90;;;6.33;100.00;100909.78;10552025;28;20064;-81
2023/01/02 18:18:31;;;;;;;75.37;17.33;;;8.60;99.90;;;6.34;100.00;100906.19;10569430;28;20185;-82
2023/01/02 18:23:34;;;;;;;72.23;19.17;;;8.60;99.90;;;6.34;100.00;100908.81;10559808;28;20386;-81
2023/01/02 18:28:40;;;;;;;62.77;17.03;;;8.60;99.90;;;6.33;100.00;100909.78;10548249;27;20088;-81
2023/01/02 18:33:43;;;;;;;85.63;18.77;;;8.60;99.90;;;6.34;100.00;100903.53;10551509;27;20075;-81
2023/01/02 18:38:51;;;;;;;63.33;15.90;;;8.50;99.90;;;6.34;100.00;100899.09;10555628;27;20052;-81
2023/01/02 18:44:25;;;;;;;58.97;18.07;;;8.60;99.90;;;6.35;100.00;100894.66;10538991;27;20087;-81
2023/01/02 18:49:36;;;;;;;59.97;20.47;;;8.60;99.90;;;6.33;100.00;100901.88;10549435;27;20087;-82
2023/01/02 18:54:46;;;;;;;74.37;19.87;;;8.60;99.90;;;6.36;100.00;100906.91;10529728;27;20083;-82
2023/01/02 18:59:51;;;;;;;67.23;18.03;;;8.60;99.90;;;6.37;100.00;100905.94;10537884;28;20067;-82
2023/01/02 19:04:55;;;;;;;86.10;18.07;;;8.60;99.90;;;6.38;100.00;100900.53;10551557;27;20068;-81
2023/01/02 19:10:31;;;;;;;84.70;18.67;;;8.60;99.90;;;6.37;100.00;100905.94;10546946;28;20060;-81
2023/01/02 19:16:04;;;;;;;54.70;18.60;;;8.60;99.90;;;6.37;100.00;100903.31;10546427;28;20063;-81
2023/01/02 19:21:23;;;;;;;70.57;18.07;;;8.60;99.90;;;6.37;100.00;100903.31;10541099;27;20060;-81
2023/01/02 19:26:45;;;;;;;61.33;17.07;;;8.60;99.90;;;6.35;100.00;100906.03;10542888;28;20067;-82
2023/01/02 19:32:15;;;;;;;59.70;17.90;;;8.60;99.90;;;6.32;100.00;100901.03;10560061;28;20188;-81
2023/01/02 19:37:51;;;;;;;54.97;16.53;;;8.60;99.90;;;6.25;100.00;100906.94;10566492;28;20528;-81
2023/01/02 19:42:54;;;;;;;61.83;16.80;;;8.50;99.90;;;6.25;100.00;100906.94;10503349;28;20063;-81
2023/01/02 19:47:57;;;;;;;58.53;16.77;;;8.50;99.90;;;6.25;100.00;100912.22;10562523;28;20063;-80
2023/01/02 19:53:00;;;;;;;64.37;20.23;;;8.40;99.90;;;6.28;100.00;100902.22;10524159;27;20066;-81
2023/01/02 19:58:03;;;;;;;93.17;27.83;;;8.50;99.90;;;6.33;100.00;100905.34;10541754;27;20062;-81
2023/01/02 20:03:08;;;;;;;63.23;18.13;;;8.50;99.90;;;6.39;100.00;100906.66;10543632;28;20151;-81
2023/01/02 20:08:11;;;;;;;66.87;17.73;;;8.60;99.90;;;6.42;100.00;100909.06;10538672;27;20086;-81
2023/01/02 20:13:13;;;;;;;60.67;17.00;;;8.60;99.90;;;6.48;100.00;100910.34;10529198;28;20056;-81
2023/01/02 20:18:16;;;;;;;52.67;15.07;;;8.70;99.90;;;6.53;100.00;100914.28;10522491;28;20053;-81
2023/01/02 20:23:20;;;;;;;71.80;16.57;;;8.70;99.90;;;6.59;100.00;100913.78;10562199;28;20071;-81
2023/01/02 20:28:23;;;;;;;56.80;15.57;;;8.80;99.90;;;6.64;100.00;100906.34;10541260;28;20403;-81
2023/01/02 20:33:25;;;;;;;53.07;14.77;;;8.90;99.90;;;6.67;100.00;100921.94;10552146;28;20133;-81
2023/01/02 20:38:29;;;;;;;53.90;15.07;;;8.90;99.90;;;6.71;100.00;100918.06;10529946;27;20056;-81
2023/01/02 20:43:33;;;;;;;64.10;17.50;;;8.90;99.90;;;6.74;100.00;100910.88;10556999;28;20052;-81
2023/01/02 20:48:36;;;;;;;69.07;18.27;;;9.00;99.90;;;6.75;100.00;100917.84;10546372;28;20095;-81
2023/01/02 20:53:39;;;;;;;58.57;18.30;;;9.00;99.90;;;6.77;100.00;100905.31;10543724;28;20217;-81
2023/01/02 20:58:42;;;;;;;69.57;21.00;;;9.00;99.90;;;6.80;100.00;100907.72;10542796;28;20084;-81
2023/01/02 21:03:45;;;;;;;74.73;19.07;;;9.00;99.90;;;6.81;100.00;100909.41;10531456;28;20056;-81
2023/01/02 21:08:48;;;;;;;97.03;23.30;;;9.00;99.90;;;6.81;100.00;100912.03;10513554;28;20186;-81
2023/01/02 21:13:51;;;;;;;88.80;23.00;;;9.00;99.90;;;6.83;100.00;100915.38;10548943;27;20575;-81
2023/01/02 21:18:56;;;;;;;65.70;19.47;;;9.10;99.90;;;6.81;100.00;100918.16;10568262;27;20082;-81
2023/01/02 21:24:00;;;;;;;81.10;21.23;;;9.10;99.90;;;6.83;100.00;100923.31;10535437;27;20059;-82
2023/01/02 21:29:03;;;;;;;82.03;22.90;;;9.10;99.90;;;6.82;100.00;100926.94;10563892;27;20067;-81